createdAt,value
2019-02-15T00:03:55.925Z,12.77
2019-02-15T00:08:56.678Z,12.60
2019-02-15T00:14:05.106Z,12.53
2019-02-15T00:19:13.284Z,12.71
2019-02-15T00:24:21.616Z,13.27
2019-02-15T00:29:29.698Z,12.88
2019-02-15T00:34:37.976Z,13.35
2019-02-15T00:39:46.132Z,12.84
2019-02-15T00:44:54.453Z,12.58
2019-02-15T00:50:02.627Z,12.98
2019-02-15T00:55:10.840Z,12.65
2019-02-15T01:00:19.053Z,12.70
2019-02-15T01:05:27.470Z,12.82
2019-02-15T01:10:35.579Z,12.40
2019-02-15T01:15:44.011Z,12.71
2019-02-15T01:20:52.225Z,11.98
2019-02-15T01:26:01.426Z,12.28
2019-02-15T01:31:09.555Z,11.95
2019-02-15T01:36:18.135Z,12.09
2019-02-15T01:41:26.302Z,11.50
2019-02-15T01:46:34.758Z,11.93
2019-02-15T01:51:42.896Z,11.67
2019-02-15T01:56:51.213Z,11.61
2019-02-15T02:01:59.356Z,11.65
2019-02-15T02:07:08.047Z,11.85
2019-02-15T02:12:16.176Z,12.22
2019-02-15T02:17:24.401Z,11.24
2019-02-15T02:22:32.541Z,12.80
2019-02-15T02:27:40.731Z,11.75
2019-02-15T02:32:48.843Z,11.77
2019-02-15T02:37:57.059Z,12.17
2019-02-15T02:43:05.150Z,11.55
2019-02-15T02:48:13.389Z,12.46
2019-02-15T02:53:21.481Z,12.26
2019-02-15T02:58:29.798Z,12.58
2019-02-15T03:03:37.824Z,12.40
2019-02-15T03:08:46.091Z,12.21
2019-02-15T03:13:54.827Z,12.39
2019-02-15T03:19:02.942Z,12.35
2019-02-15T03:24:11.097Z,12.96
2019-02-15T03:29:19.312Z,12.85
2019-02-15T03:34:27.434Z,12.57
2019-02-15T03:39:35.562Z,12.78
2019-02-15T03:44:43.689Z,13.32
2019-02-15T03:49:52.108Z,13.52
2019-02-15T03:55:00.195Z,13.61
2019-02-15T04:00:08.201Z,14.18
2019-02-15T04:05:18.069Z,13.67
2019-02-15T04:10:26.101Z,14.11
2019-02-15T04:15:34.220Z,14.97
2019-02-15T04:20:42.318Z,14.67
2019-02-15T04:25:50.510Z,15.07
2019-02-15T04:30:58.639Z,15.96
2019-02-15T04:36:06.741Z,15.66
2019-02-15T04:41:14.812Z,15.14
2019-02-15T04:46:22.961Z,15.85
2019-02-15T04:51:31.241Z,15.49
2019-02-15T04:56:39.429Z,15.00
2019-02-15T05:01:47.698Z,15.69
2019-02-15T05:06:55.765Z,15.51
2019-02-15T05:12:04.036Z,14.73
2019-02-15T05:17:12.129Z,15.19
2019-02-15T05:22:20.287Z,15.08
2019-02-15T05:27:28.652Z,14.76
2019-02-15T05:32:36.702Z,14.67
2019-02-15T05:37:44.822Z,15.27
2019-02-15T05:42:53.124Z,14.99
2019-02-15T05:48:01.230Z,15.33
2019-02-15T05:53:09.506Z,14.91
2019-02-15T05:58:17.856Z,14.03
2019-02-15T06:03:26.163Z,14.40
2019-02-15T06:08:34.313Z,14.23
2019-02-15T06:13:42.415Z,14.95
2019-02-15T06:18:50.471Z,14.99
2019-02-15T06:23:58.677Z,15.20
2019-02-15T06:29:06.731Z,15.32
2019-02-15T06:34:14.894Z,16.02
2019-02-15T06:39:23.041Z,14.74
2019-02-15T06:44:31.291Z,14.86
2019-02-15T06:49:39.349Z,14.23
2019-02-15T06:54:47.541Z,15.56
2019-02-15T06:59:55.617Z,16.46
2019-02-15T07:05:03.882Z,15.58
2019-02-15T07:10:11.965Z,14.92
2019-02-15T07:15:20.281Z,15.66
2019-02-15T07:20:28.334Z,15.43
2019-02-15T07:25:36.722Z,13.46
2019-02-15T07:30:44.824Z,12.72
2019-02-15T07:35:53.465Z,14.36
2019-02-15T07:41:01.614Z,12.93
2019-02-15T07:46:10.390Z,12.63
2019-02-15T07:51:18.349Z,11.72
2019-02-15T07:56:26.361Z,11.40
2019-02-15T08:01:35.580Z,10.69
2019-02-15T08:06:43.779Z,11.38
2019-02-15T08:11:51.880Z,11.71
2019-02-15T08:17:00.965Z,10.74
2019-02-15T08:22:08.903Z,11.27
2019-02-15T08:27:17.148Z,10.86
2019-02-15T08:32:25.264Z,11.72
2019-02-15T08:37:33.461Z,11.66
2019-02-15T08:42:41.644Z,11.98
2019-02-15T08:47:49.823Z,11.36
2019-02-15T08:52:57.893Z,11.51
2019-02-15T08:58:06.189Z,10.51
2019-02-15T09:03:14.214Z,11.17
2019-02-15T09:08:22.512Z,10.26
2019-02-15T09:13:30.672Z,10.52
2019-02-15T09:18:39.061Z,11.41
2019-02-15T09:23:47.269Z,10.33
2019-02-15T09:28:55.350Z,11.07
2019-02-15T09:34:03.579Z,11.33
2019-02-15T09:39:11.920Z,10.84
2019-02-15T09:44:20.043Z,11.04
2019-02-15T09:49:28.309Z,11.29
2019-02-15T09:54:36.466Z,11.39
2019-02-15T09:59:44.652Z,11.53
2019-02-15T10:04:52.635Z,11.00
2019-02-15T10:10:00.789Z,10.19
2019-02-15T10:15:08.920Z,11.19
2019-02-15T10:20:17.208Z,10.59
2019-02-15T10:25:25.587Z,11.48
2019-02-15T10:30:33.641Z,11.35
2019-02-15T10:35:41.735Z,11.64
2019-02-15T10:40:49.849Z,11.35
2019-02-15T10:45:57.998Z,10.71
2019-02-15T10:51:06.081Z,10.27
2019-02-15T10:56:14.296Z,9.96
2019-02-15T11:01:22.448Z,12.63
2019-02-15T11:06:30.491Z,10.18
2019-02-15T11:11:38.649Z,10.39
2019-02-15T11:16:47.542Z,11.27
2019-02-15T11:21:54.317Z,10.76
2019-02-15T11:27:02.576Z,10.25
2019-02-15T11:32:10.673Z,10.76
2019-02-15T11:37:18.972Z,10.13
2019-02-15T11:42:27.078Z,10.56
2019-02-15T11:47:35.161Z,11.62
2019-02-15T11:52:43.408Z,9.62
2019-02-15T11:57:51.573Z,9.46
2019-02-15T12:02:59.967Z,11.10
2019-02-15T12:08:08.048Z,9.68
2019-02-15T12:13:16.247Z,11.24
2019-02-15T12:18:24.352Z,9.48
2019-02-15T12:23:32.653Z,9.47
2019-02-15T12:28:41.063Z,8.69
2019-02-15T12:33:49.577Z,9.31
2019-02-15T12:38:57.762Z,8.78
2019-02-15T12:44:06.101Z,13.07
2019-02-15T12:49:14.215Z,9.92
2019-02-15T12:54:22.419Z,8.61
2019-02-15T12:59:30.573Z,8.75
2019-02-15T13:04:39.115Z,8.59
2019-02-15T13:09:47.201Z,7.57
2019-02-15T13:14:55.472Z,7.66
2019-02-15T13:20:03.990Z,7.61
2019-02-15T13:25:12.150Z,7.60
2019-02-15T13:30:20.361Z,7.84
2019-02-15T13:35:29.024Z,7.71
2019-02-15T13:40:37.041Z,6.64
2019-02-15T13:45:45.181Z,8.28
2019-02-15T13:50:53.397Z,7.50
2019-02-15T13:56:01.606Z,5.98
2019-02-15T14:01:09.777Z,4.28
2019-02-15T14:06:18.009Z,5.05
2019-02-15T14:11:24.626Z,5.65
2019-02-15T14:16:33.009Z,4.50
2019-02-15T14:21:44.345Z,3.88
2019-02-15T14:26:48.833Z,4.15
2019-02-15T14:31:57.133Z,4.42
2019-02-15T14:37:05.601Z,4.79
2019-02-15T14:42:13.694Z,5.02
2019-02-15T14:47:21.933Z,3.90
2019-02-15T14:52:30.162Z,2.74
2019-02-15T14:57:38.516Z,3.32
2019-02-15T15:02:46.616Z,3.34
2019-02-15T15:07:55.018Z,3.67
2019-02-15T15:13:03.139Z,2.86
2019-02-15T15:18:13.463Z,3.07
2019-02-15T15:23:19.057Z,2.55
2019-02-15T15:28:27.453Z,2.57
2019-02-15T15:33:35.676Z,1.97
2019-02-15T15:38:43.947Z,2.16
2019-02-15T15:43:52.102Z,1.95
2019-02-15T15:49:00.480Z,1.69
2019-02-15T15:54:08.659Z,1.88
2019-02-15T15:59:16.978Z,1.77
2019-02-15T16:04:25.601Z,1.61
2019-02-15T16:09:33.830Z,1.91
2019-02-15T16:14:41.985Z,2.79
2019-02-15T16:19:50.284Z,2.45
2019-02-15T16:24:58.551Z,3.09
2019-02-15T16:30:06.910Z,3.47
2019-02-15T16:35:15.909Z,3.80
2019-02-15T16:40:23.857Z,3.92
2019-02-15T16:45:31.930Z,3.95
2019-02-15T16:50:40.141Z,4.46
2019-02-15T16:55:42.435Z,4.31
2019-02-15T17:00:48.531Z,4.58
2019-02-15T17:05:57.350Z,4.36
2019-02-15T17:11:06.458Z,4.39
2019-02-15T17:16:17.653Z,3.89
2019-02-15T17:21:16.240Z,5.62
2019-02-15T17:26:26.784Z,4.05
2019-02-15T17:31:25.605Z,4.06
2019-02-15T17:36:34.425Z,4.04
2019-02-15T17:41:42.973Z,3.85
2019-02-15T17:46:52.656Z,4.92
2019-02-15T17:51:59.606Z,3.58
2019-02-15T17:57:07.737Z,3.70
2019-02-15T18:02:16.239Z,3.45
2019-02-15T18:07:24.393Z,3.34
2019-02-15T18:12:32.968Z,3.61
2019-02-15T18:17:41.304Z,4.23
2019-02-15T18:22:49.689Z,4.33
2019-02-15T18:27:57.871Z,4.18
2019-02-15T18:33:06.410Z,4.63
2019-02-15T18:38:14.602Z,4.26
2019-02-15T18:43:23.008Z,3.65
2019-02-15T18:48:31.113Z,4.24
2019-02-15T18:53:39.877Z,4.19
2019-02-15T18:58:48.152Z,4.28
2019-02-15T19:03:57.482Z,4.60
2019-02-15T19:09:05.599Z,4.95
2019-02-15T19:14:14.039Z,4.89
2019-02-15T19:19:28.832Z,5.69
2019-02-15T19:24:30.009Z,6.12
2019-02-15T19:29:38.088Z,5.56
2019-02-15T19:34:46.418Z,5.10
2019-02-15T19:39:54.587Z,5.87
2019-02-15T19:45:03.053Z,5.81
2019-02-15T19:50:11.152Z,5.52
2019-02-15T19:55:20.324Z,5.34
2019-02-15T20:00:28.503Z,5.43
2019-02-15T20:05:36.796Z,5.23
2019-02-15T20:10:44.877Z,5.28
2019-02-15T20:15:53.640Z,4.53
2019-02-15T20:21:01.970Z,5.24
2019-02-15T20:26:10.268Z,4.92
2019-02-15T20:31:18.444Z,4.75
2019-02-15T20:36:26.807Z,4.94
2019-02-15T20:41:34.889Z,5.60
2019-02-15T20:46:43.779Z,5.90
2019-02-15T20:51:51.859Z,5.23
2019-02-15T20:57:01.064Z,5.21
2019-02-15T21:02:08.145Z,5.32
2019-02-15T21:07:16.561Z,5.20
2019-02-15T21:12:24.637Z,5.36
2019-02-15T21:17:32.886Z,5.62
2019-02-15T21:22:40.985Z,5.58
2019-02-15T21:27:49.523Z,5.28
2019-02-15T21:32:57.689Z,5.30
2019-02-15T21:38:06.261Z,4.70
2019-02-15T21:43:14.361Z,4.61
2019-02-15T21:48:23.008Z,4.95
2019-02-15T21:53:31.245Z,5.08
2019-02-15T21:58:39.673Z,5.04
2019-02-15T22:03:47.809Z,5.16
2019-02-15T22:08:56.342Z,5.03
2019-02-15T22:14:04.930Z,4.91
2019-02-15T22:19:13.650Z,5.05
2019-02-15T22:24:21.786Z,5.16
2019-02-15T22:29:30.058Z,5.16
2019-02-15T22:34:38.273Z,5.29
2019-02-15T22:39:46.873Z,5.83
2019-02-15T22:44:54.947Z,6.45
2019-02-15T22:50:03.329Z,6.39
2019-02-15T22:55:11.739Z,6.09
2019-02-15T23:00:20.045Z,5.28
2019-02-15T23:05:29.134Z,5.55
2019-02-15T23:10:37.426Z,4.93
2019-02-15T23:15:45.538Z,4.87
2019-02-15T23:20:53.969Z,4.69
2019-02-15T23:26:02.118Z,4.93
2019-02-15T23:31:11.764Z,4.84
2019-02-15T23:36:19.857Z,4.76
2019-02-15T23:41:28.190Z,4.85
2019-02-15T23:46:36.310Z,5.14
2019-02-15T23:51:44.596Z,4.84
2019-02-15T23:56:52.713Z,5.03
